sensor_id;sensor_type;location;lat;lon;timestamp;P1;durP1;ratioP1;P2;durP2;ratioP2
4744;SDS011;2386;42.138;24.746;2023-05-07T00:01:41;13.10;;;8.27;;
4744;SDS011;2386;42.138;24.746;2023-05-07T00:04:06;13.07;;;7.30;;
4744;SDS011;2386;42.138;24.746;2023-05-07T00:06:32;10.90;;;7.80;;
4744;SDS011;2386;42.138;24.746;2023-05-07T00:08:58;9.67;;;7.70;;
4744;SDS011;2386;42.138;24.746;2023-05-07T00:11:24;12.67;;;7.47;;
4744;SDS011;2386;42.138;24.746;2023-05-07T00:13:51;7.67;;;6.90;;
4744;SDS011;2386;42.138;24.746;2023-05-07T00:16:16;8.53;;;7.37;;
4744;SDS011;2386;42.138;24.746;2023-05-07T00:18:41;11.67;;;7.40;;
4744;SDS011;2386;42.138;24.746;2023-05-07T00:21:07;10.90;;;6.97;;
4744;SDS011;2386;42.138;24.746;2023-05-07T00:23:32;10.30;;;6.87;;
4744;SDS011;2386;42.138;24.746;2023-05-07T00:25:57;15.77;;;7.37;;
4744;SDS011;2386;42.138;24.746;2023-05-07T00:28:23;7.77;;;7.00;;
4744;SDS011;2386;42.138;24.746;2023-05-07T00:30:48;7.53;;;6.57;;
4744;SDS011;2386;42.138;24.746;2023-05-07T00:33:14;8.53;;;7.70;;
4744;SDS011;2386;42.138;24.746;2023-05-07T00:35:39;9.37;;;7.20;;
4744;SDS011;2386;42.138;24.746;2023-05-07T00:38:04;10.53;;;7.27;;
4744;SDS011;2386;42.138;24.746;2023-05-07T00:40:30;8.83;;;7.20;;
4744;SDS011;2386;42.138;24.746;2023-05-07T00:42:55;8.67;;;6.73;;
4744;SDS011;2386;42.138;24.746;2023-05-07T00:45:23;18.33;;;6.97;;
4744;SDS011;2386;42.138;24.746;2023-05-07T00:47:57;7.00;;;6.10;;
4744;SDS011;2386;42.138;24.746;2023-05-07T00:50:24;17.43;;;7.33;;
4744;SDS011;2386;42.138;24.746;2023-05-07T00:52:51;8.53;;;7.13;;
4744;SDS011;2386;42.138;24.746;2023-05-07T00:55:17;7.93;;;6.40;;
4744;SDS011;2386;42.138;24.746;2023-05-07T00:57:43;9.90;;;6.13;;
4744;SDS011;2386;42.138;24.746;2023-05-07T01:00:09;7.87;;;5.87;;
4744;SDS011;2386;42.138;24.746;2023-05-07T01:02:37;9.13;;;6.50;;
4744;SDS011;2386;42.138;24.746;2023-05-07T01:05:03;8.20;;;6.97;;
4744;SDS011;2386;42.138;24.746;2023-05-07T01:07:31;9.27;;;6.00;;
4744;SDS011;2386;42.138;24.746;2023-05-07T01:09:57;7.47;;;6.63;;
4744;SDS011;2386;42.138;24.746;2023-05-07T01:12:23;9.37;;;6.83;;
4744;SDS011;2386;42.138;24.746;2023-05-07T01:14:50;8.10;;;6.70;;
4744;SDS011;2386;42.138;24.746;2023-05-07T01:17:16;8.33;;;6.83;;
4744;SDS011;2386;42.138;24.746;2023-05-07T01:19:42;6.87;;;6.17;;
4744;SDS011;2386;42.138;24.746;2023-05-07T01:22:08;10.27;;;6.67;;
4744;SDS011;2386;42.138;24.746;2023-05-07T01:24:36;11.07;;;6.17;;
4744;SDS011;2386;42.138;24.746;2023-05-07T01:27:02;7.63;;;6.87;;
4744;SDS011;2386;42.138;24.746;2023-05-07T01:29:28;7.70;;;6.50;;
4744;SDS011;2386;42.138;24.746;2023-05-07T01:31:53;14.53;;;6.50;;
4744;SDS011;2386;42.138;24.746;2023-05-07T01:34:21;7.83;;;6.73;;
4744;SDS011;2386;42.138;24.746;2023-05-07T01:36:47;7.90;;;7.10;;
4744;SDS011;2386;42.138;24.746;2023-05-07T01:39:13;11.00;;;6.30;;
4744;SDS011;2386;42.138;24.746;2023-05-07T01:41:41;9.40;;;6.90;;
4744;SDS011;2386;42.138;24.746;2023-05-07T01:44:08;8.23;;;6.57;;
4744;SDS011;2386;42.138;24.746;2023-05-07T01:46:35;10.03;;;7.10;;
4744;SDS011;2386;42.138;24.746;2023-05-07T01:49:00;7.87;;;6.20;;
4744;SDS011;2386;42.138;24.746;2023-05-07T01:51:26;12.23;;;6.83;;
4744;SDS011;2386;42.138;24.746;2023-05-07T01:53:52;8.70;;;6.13;;
4744;SDS011;2386;42.138;24.746;2023-05-07T01:56:18;7.90;;;5.70;;
4744;SDS011;2386;42.138;24.746;2023-05-07T01:58:44;11.93;;;7.00;;
4744;SDS011;2386;42.138;24.746;2023-05-07T02:01:11;14.70;;;7.37;;
4744;SDS011;2386;42.138;24.746;2023-05-07T02:03:38;9.80;;;7.30;;
4744;SDS011;2386;42.138;24.746;2023-05-07T02:06:03;10.53;;;7.03;;
4744;SDS011;2386;42.138;24.746;2023-05-07T02:08:28;8.97;;;6.70;;
4744;SDS011;2386;42.138;24.746;2023-05-07T02:10:55;8.53;;;7.00;;
4744;SDS011;2386;42.138;24.746;2023-05-07T02:13:20;7.20;;;6.27;;
4744;SDS011;2386;42.138;24.746;2023-05-07T02:15:47;10.30;;;6.30;;
4744;SDS011;2386;42.138;24.746;2023-05-07T02:18:15;10.33;;;7.40;;
4744;SDS011;2386;42.138;24.746;2023-05-07T02:20:41;7.80;;;6.37;;
4744;SDS011;2386;42.138;24.746;2023-05-07T02:23:07;10.83;;;7.67;;
4744;SDS011;2386;42.138;24.746;2023-05-07T02:25:33;10.80;;;7.50;;
4744;SDS011;2386;42.138;24.746;2023-05-07T02:27:58;8.10;;;7.30;;
4744;SDS011;2386;42.138;24.746;2023-05-07T02:30:24;11.00;;;7.37;;
4744;SDS011;2386;42.138;24.746;2023-05-07T02:32:50;8.50;;;7.60;;
4744;SDS011;2386;42.138;24.746;2023-05-07T02:35:15;8.43;;;7.53;;
4744;SDS011;2386;42.138;24.746;2023-05-07T02:37:41;9.57;;;7.40;;
4744;SDS011;2386;42.138;24.746;2023-05-07T02:40:06;12.50;;;7.07;;
4744;SDS011;2386;42.138;24.746;2023-05-07T02:42:32;17.43;;;7.60;;
4744;SDS011;2386;42.138;24.746;2023-05-07T02:44:58;10.00;;;8.20;;
4744;SDS011;2386;42.138;24.746;2023-05-07T02:47:24;9.60;;;8.60;;
4744;SDS011;2386;42.138;24.746;2023-05-07T02:49:51;16.13;;;8.63;;
4744;SDS011;2386;42.138;24.746;2023-05-07T02:52:17;11.23;;;8.60;;
4744;SDS011;2386;42.138;24.746;2023-05-07T02:54:43;12.80;;;8.07;;
4744;SDS011;2386;42.138;24.746;2023-05-07T02:57:08;10.57;;;8.50;;
4744;SDS011;2386;42.138;24.746;2023-05-07T02:59:34;9.53;;;8.00;;
4744;SDS011;2386;42.138;24.746;2023-05-07T03:01:59;10.57;;;9.30;;
4744;SDS011;2386;42.138;24.746;2023-05-07T03:04:24;11.67;;;8.10;;
4744;SDS011;2386;42.138;24.746;2023-05-07T03:06:50;12.10;;;9.07;;
4744;SDS011;2386;42.138;24.746;2023-05-07T03:09:15;12.03;;;9.17;;
4744;SDS011;2386;42.138;24.746;2023-05-07T03:11:41;16.10;;;9.53;;
4744;SDS011;2386;42.138;24.746;2023-05-07T03:14:06;10.57;;;8.80;;
4744;SDS011;2386;42.138;24.746;2023-05-07T03:16:32;10.87;;;9.20;;
4744;SDS011;2386;42.138;24.746;2023-05-07T03:18:57;14.77;;;9.63;;
4744;SDS011;2386;42.138;24.746;2023-05-07T03:21:23;15.50;;;10.30;;
4744;SDS011;2386;42.138;24.746;2023-05-07T03:23:48;12.50;;;10.30;;
4744;SDS011;2386;42.138;24.746;2023-05-07T03:26:14;12.13;;;9.40;;
4744;SDS011;2386;42.138;24.746;2023-05-07T03:28:39;13.10;;;10.30;;
4744;SDS011;2386;42.138;24.746;2023-05-07T03:31:04;12.63;;;9.93;;
4744;SDS011;2386;42.138;24.746;2023-05-07T03:33:32;14.53;;;9.70;;
4744;SDS011;2386;42.138;24.746;2023-05-07T03:35:58;13.37;;;10.17;;
4744;SDS011;2386;42.138;24.746;2023-05-07T03:38:23;12.10;;;9.50;;
4744;SDS011;2386;42.138;24.746;2023-05-07T03:40:49;13.10;;;10.07;;
4744;SDS011;2386;42.138;24.746;2023-05-07T03:43:14;16.63;;;11.40;;
4744;SDS011;2386;42.138;24.746;2023-05-07T03:45:40;20.00;;;11.73;;
4744;SDS011;2386;42.138;24.746;2023-05-07T03:48:05;13.77;;;10.73;;
4744;SDS011;2386;42.138;24.746;2023-05-07T03:50:31;13.67;;;10.80;;
4744;SDS011;2386;42.138;24.746;2023-05-07T03:52:56;12.97;;;11.10;;
4744;SDS011;2386;42.138;24.746;2023-05-07T03:55:21;13.43;;;11.03;;
4744;SDS011;2386;42.138;24.746;2023-05-07T03:57:47;16.17;;;12.00;;
4744;SDS011;2386;42.138;24.746;2023-05-07T04:00:12;20.90;;;11.83;;
4744;SDS011;2386;42.138;24.746;2023-05-07T04:02:38;16.60;;;11.80;;
4744;SDS011;2386;42.138;24.746;2023-05-07T04:05:03;19.93;;;11.60;;
4744;SDS011;2386;42.138;24.746;2023-05-07T04:07:29;12.07;;;10.83;;
4744;SDS011;2386;42.138;24.746;2023-05-07T04:09:54;26.33;;;11.67;;
4744;SDS011;2386;42.138;24.746;2023-05-07T04:12:20;11.97;;;10.67;;
4744;SDS011;2386;42.138;24.746;2023-05-07T04:14:45;17.33;;;11.70;;
4744;SDS011;2386;42.138;24.746;2023-05-07T04:17:11;15.37;;;11.77;;
4744;SDS011;2386;42.138;24.746;2023-05-07T04:19:36;17.60;;;11.17;;
4744;SDS011;2386;42.138;24.746;2023-05-07T04:22:01;13.93;;;10.33;;
4744;SDS011;2386;42.138;24.746;2023-05-07T04:24:27;14.50;;;10.87;;
4744;SDS011;2386;42.138;24.746;2023-05-07T04:26:52;11.00;;;9.90;;
4744;SDS011;2386;42.138;24.746;2023-05-07T04:29:18;15.83;;;10.10;;
4744;SDS011;2386;42.138;24.746;2023-05-07T04:31:43;14.03;;;11.13;;
4744;SDS011;2386;42.138;24.746;2023-05-07T04:34:12;13.67;;;9.40;;
4744;SDS011;2386;42.138;24.746;2023-05-07T04:36:38;11.27;;;10.07;;
4744;SDS011;2386;42.138;24.746;2023-05-07T04:39:03;13.57;;;11.20;;
4744;SDS011;2386;42.138;24.746;2023-05-07T04:41:29;13.97;;;10.67;;
4744;SDS011;2386;42.138;24.746;2023-05-07T04:43:55;15.10;;;10.07;;
4744;SDS011;2386;42.138;24.746;2023-05-07T04:46:21;14.77;;;9.70;;
4744;SDS011;2386;42.138;24.746;2023-05-07T04:48:47;13.40;;;9.87;;
4744;SDS011;2386;42.138;24.746;2023-05-07T04:51:12;14.63;;;10.27;;
4744;SDS011;2386;42.138;24.746;2023-05-07T04:53:38;17.93;;;9.50;;
4744;SDS011;2386;42.138;24.746;2023-05-07T04:56:03;14.43;;;10.27;;
4744;SDS011;2386;42.138;24.746;2023-05-07T04:58:29;14.83;;;9.90;;
4744;SDS011;2386;42.138;24.746;2023-05-07T05:00:56;19.70;;;9.87;;
4744;SDS011;2386;42.138;24.746;2023-05-07T05:03:22;13.23;;;10.73;;
4744;SDS011;2386;42.138;24.746;2023-05-07T05:05:51;12.33;;;9.80;;
4744;SDS011;2386;42.138;24.746;2023-05-07T05:08:18;15.00;;;10.53;;
4744;SDS011;2386;42.138;24.746;2023-05-07T05:10:43;13.33;;;10.50;;
4744;SDS011;2386;42.138;24.746;2023-05-07T05:13:09;10.63;;;8.93;;
4744;SDS011;2386;42.138;24.746;2023-05-07T05:15:37;13.80;;;9.90;;
4744;SDS011;2386;42.138;24.746;2023-05-07T05:18:03;13.60;;;9.87;;
4744;SDS011;2386;42.138;24.746;2023-05-07T05:20:28;16.03;;;9.93;;
4744;SDS011;2386;42.138;24.746;2023-05-07T05:22:54;14.60;;;9.77;;
4744;SDS011;2386;42.138;24.746;2023-05-07T05:25:20;11.50;;;9.97;;
4744;SDS011;2386;42.138;24.746;2023-05-07T05:27:45;13.27;;;9.70;;
4744;SDS011;2386;42.138;24.746;2023-05-07T05:30:10;14.57;;;10.10;;
4744;SDS011;2386;42.138;24.746;2023-05-07T05:32:36;12.27;;;9.60;;
4744;SDS011;2386;42.138;24.746;2023-05-07T05:35:02;11.90;;;8.80;;
4744;SDS011;2386;42.138;24.746;2023-05-07T05:37:27;11.90;;;9.77;;
4744;SDS011;2386;42.138;24.746;2023-05-07T05:39:52;12.20;;;9.33;;
4744;SDS011;2386;42.138;24.746;2023-05-07T05:42:19;11.00;;;9.50;;
4744;SDS011;2386;42.138;24.746;2023-05-07T05:44:45;22.07;;;9.47;;
4744;SDS011;2386;42.138;24.746;2023-05-07T05:47:10;11.87;;;9.10;;
4744;SDS011;2386;42.138;24.746;2023-05-07T05:49:36;13.53;;;9.00;;
4744;SDS011;2386;42.138;24.746;2023-05-07T05:52:01;10.40;;;8.43;;
4744;SDS011;2386;42.138;24.746;2023-05-07T05:54:26;19.10;;;9.53;;
4744;SDS011;2386;42.138;24.746;2023-05-07T05:56:52;14.13;;;9.73;;
4744;SDS011;2386;42.138;24.746;2023-05-07T05:59:17;12.40;;;7.97;;
4744;SDS011;2386;42.138;24.746;2023-05-07T06:01:43;13.40;;;8.30;;
4744;SDS011;2386;42.138;24.746;2023-05-07T06:04:08;18.03;;;8.40;;
4744;SDS011;2386;42.138;24.746;2023-05-07T06:06:34;17.27;;;8.60;;
4744;SDS011;2386;42.138;24.746;2023-05-07T06:08:59;11.77;;;8.40;;
4744;SDS011;2386;42.138;24.746;2023-05-07T06:11:25;11.87;;;9.20;;
4744;SDS011;2386;42.138;24.746;2023-05-07T06:13:50;9.60;;;8.57;;
4744;SDS011;2386;42.138;24.746;2023-05-07T06:16:16;12.97;;;9.13;;
4744;SDS011;2386;42.138;24.746;2023-05-07T06:18:41;14.40;;;9.50;;
4744;SDS011;2386;42.138;24.746;2023-05-07T06:21:06;10.97;;;8.23;;
4744;SDS011;2386;42.138;24.746;2023-05-07T06:23:32;13.50;;;9.10;;
4744;SDS011;2386;42.138;24.746;2023-05-07T06:25:57;10.20;;;8.70;;
4744;SDS011;2386;42.138;24.746;2023-05-07T06:28:23;10.63;;;7.93;;
4744;SDS011;2386;42.138;24.746;2023-05-07T06:30:48;15.33;;;7.97;;
4744;SDS011;2386;42.138;24.746;2023-05-07T06:33:15;11.43;;;8.50;;
4744;SDS011;2386;42.138;24.746;2023-05-07T06:35:40;13.23;;;9.00;;
4744;SDS011;2386;42.138;24.746;2023-05-07T06:38:06;21.53;;;8.90;;
4744;SDS011;2386;42.138;24.746;2023-05-07T06:40:31;10.77;;;8.07;;
4744;SDS011;2386;42.138;24.746;2023-05-07T06:42:57;10.70;;;8.07;;
4744;SDS011;2386;42.138;24.746;2023-05-07T06:45:22;14.97;;;8.30;;
4744;SDS011;2386;42.138;24.746;2023-05-07T06:47:48;16.80;;;8.63;;
4744;SDS011;2386;42.138;24.746;2023-05-07T06:50:14;19.07;;;8.40;;
4744;SDS011;2386;42.138;24.746;2023-05-07T06:52:41;13.23;;;8.10;;
4744;SDS011;2386;42.138;24.746;2023-05-07T06:55:07;9.00;;;8.10;;
4744;SDS011;2386;42.138;24.746;2023-05-07T06:57:32;25.63;;;8.83;;
4744;SDS011;2386;42.138;24.746;2023-05-07T06:59:58;12.17;;;7.60;;
4744;SDS011;2386;42.138;24.746;2023-05-07T07:02:23;11.10;;;8.73;;
4744;SDS011;2386;42.138;24.746;2023-05-07T07:04:48;11.13;;;8.17;;
4744;SDS011;2386;42.138;24.746;2023-05-07T07:07:14;15.87;;;8.47;;
4744;SDS011;2386;42.138;24.746;2023-05-07T07:09:39;11.53;;;10.17;;
4744;SDS011;2386;42.138;24.746;2023-05-07T07:12:05;10.10;;;8.43;;
4744;SDS011;2386;42.138;24.746;2023-05-07T07:14:30;10.73;;;8.70;;
4744;SDS011;2386;42.138;24.746;2023-05-07T07:16:55;10.30;;;8.30;;
4744;SDS011;2386;42.138;24.746;2023-05-07T07:19:21;11.50;;;9.57;;
4744;SDS011;2386;42.138;24.746;2023-05-07T07:21:46;17.93;;;9.03;;
4744;SDS011;2386;42.138;24.746;2023-05-07T07:24:12;9.87;;;8.87;;
4744;SDS011;2386;42.138;24.746;2023-05-07T07:26:38;9.77;;;8.47;;
4744;SDS011;2386;42.138;24.746;2023-05-07T07:29:04;13.43;;;8.20;;
4744;SDS011;2386;42.138;24.746;2023-05-07T07:31:30;16.70;;;8.67;;
4744;SDS011;2386;42.138;24.746;2023-05-07T07:33:56;9.57;;;8.57;;
4744;SDS011;2386;42.138;24.746;2023-05-07T07:36:21;12.10;;;8.47;;
4744;SDS011;2386;42.138;24.746;2023-05-07T07:38:47;13.33;;;9.57;;
4744;SDS011;2386;42.138;24.746;2023-05-07T07:41:12;12.70;;;9.10;;
4744;SDS011;2386;42.138;24.746;2023-05-07T07:43:37;10.63;;;8.93;;
4744;SDS011;2386;42.138;24.746;2023-05-07T07:46:03;12.33;;;8.70;;
4744;SDS011;2386;42.138;24.746;2023-05-07T07:48:28;11.13;;;8.43;;
4744;SDS011;2386;42.138;24.746;2023-05-07T07:50:54;9.80;;;7.70;;
4744;SDS011;2386;42.138;24.746;2023-05-07T07:53:19;11.30;;;8.00;;
4744;SDS011;2386;42.138;24.746;2023-05-07T07:55:44;9.83;;;8.13;;
4744;SDS011;2386;42.138;24.746;2023-05-07T07:58:10;10.77;;;8.00;;
4744;SDS011;2386;42.138;24.746;2023-05-07T08:00:36;12.30;;;8.80;;
4744;SDS011;2386;42.138;24.746;2023-05-07T08:03:01;9.90;;;8.73;;
4744;SDS011;2386;42.138;24.746;2023-05-07T08:05:28;9.30;;;8.40;;
4744;SDS011;2386;42.138;24.746;2023-05-07T08:07:53;15.03;;;8.30;;
4744;SDS011;2386;42.138;24.746;2023-05-07T08:10:19;10.30;;;8.53;;
4744;SDS011;2386;42.138;24.746;2023-05-07T08:12:50;8.60;;;7.43;;
4744;SDS011;2386;42.138;24.746;2023-05-07T08:15:16;9.10;;;7.67;;
4744;SDS011;2386;42.138;24.746;2023-05-07T08:17:42;8.37;;;6.87;;
4744;SDS011;2386;42.138;24.746;2023-05-07T08:20:08;8.40;;;6.70;;
4744;SDS011;2386;42.138;24.746;2023-05-07T08:22:34;7.50;;;6.70;;
4744;SDS011;2386;42.138;24.746;2023-05-07T08:25:00;9.33;;;7.07;;
4744;SDS011;2386;42.138;24.746;2023-05-07T08:27:26;7.20;;;6.53;;
4744;SDS011;2386;42.138;24.746;2023-05-07T08:29:52;7.87;;;7.07;;
4744;SDS011;2386;42.138;24.746;2023-05-07T08:32:17;7.33;;;6.23;;
4744;SDS011;2386;42.138;24.746;2023-05-07T08:34:42;11.00;;;5.20;;
4744;SDS011;2386;42.138;24.746;2023-05-07T08:37:08;6.90;;;6.20;;
4744;SDS011;2386;42.138;24.746;2023-05-07T08:39:33;8.53;;;5.57;;
4744;SDS011;2386;42.138;24.746;2023-05-07T08:42:00;12.50;;;6.20;;
4744;SDS011;2386;42.138;24.746;2023-05-07T08:44:27;9.07;;;5.93;;
4744;SDS011;2386;42.138;24.746;2023-05-07T08:46:55;8.70;;;6.40;;
4744;SDS011;2386;42.138;24.746;2023-05-07T08:49:21;7.13;;;5.40;;
4744;SDS011;2386;42.138;24.746;2023-05-07T08:51:47;10.33;;;5.40;;
4744;SDS011;2386;42.138;24.746;2023-05-07T08:54:15;7.53;;;5.90;;
4744;SDS011;2386;42.138;24.746;2023-05-07T08:56:41;12.30;;;5.80;;
4744;SDS011;2386;42.138;24.746;2023-05-07T08:59:07;5.70;;;5.00;;
4744;SDS011;2386;42.138;24.746;2023-05-07T09:01:32;7.17;;;5.20;;
4744;SDS011;2386;42.138;24.746;2023-05-07T09:04:00;8.70;;;4.40;;
4744;SDS011;2386;42.138;24.746;2023-05-07T09:06:26;8.10;;;5.43;;
4744;SDS011;2386;42.138;24.746;2023-05-07T09:08:52;6.40;;;4.73;;
4744;SDS011;2386;42.138;24.746;2023-05-07T09:11:21;6.00;;;4.30;;
4744;SDS011;2386;42.138;24.746;2023-05-07T09:13:47;7.40;;;4.80;;
4744;SDS011;2386;42.138;24.746;2023-05-07T09:16:13;10.07;;;3.93;;
4744;SDS011;2386;42.138;24.746;2023-05-07T09:18:40;7.47;;;4.07;;
4744;SDS011;2386;42.138;24.746;2023-05-07T09:21:09;4.57;;;3.33;;
4744;SDS011;2386;42.138;24.746;2023-05-07T09:23:35;6.90;;;4.27;;
4744;SDS011;2386;42.138;24.746;2023-05-07T09:26:00;5.60;;;3.93;;
4744;SDS011;2386;42.138;24.746;2023-05-07T09:28:27;5.30;;;3.40;;
4744;SDS011;2386;42.138;24.746;2023-05-07T09:30:52;3.80;;;3.40;;
4744;SDS011;2386;42.138;24.746;2023-05-07T09:33:17;3.80;;;3.50;;
4744;SDS011;2386;42.138;24.746;2023-05-07T09:35:43;3.93;;;3.50;;
4744;SDS011;2386;42.138;24.746;2023-05-07T09:38:08;4.23;;;3.73;;
4744;SDS011;2386;42.138;24.746;2023-05-07T09:40:33;8.07;;;4.10;;
4744;SDS011;2386;42.138;24.746;2023-05-07T09:43:10;3.37;;;3.17;;
4744;SDS011;2386;42.138;24.746;2023-05-07T09:45:37;4.63;;;4.07;;
4744;SDS011;2386;42.138;24.746;2023-05-07T09:48:04;5.10;;;4.50;;
4744;SDS011;2386;42.138;24.746;2023-05-07T09:50:40;5.53;;;4.17;;
4744;SDS011;2386;42.138;24.746;2023-05-07T09:53:14;10.80;;;4.10;;
4744;SDS011;2386;42.138;24.746;2023-05-07T09:55:39;5.60;;;4.90;;
4744;SDS011;2386;42.138;24.746;2023-05-07T09:58:06;7.83;;;4.37;;
4744;SDS011;2386;42.138;24.746;2023-05-07T10:00:32;6.13;;;4.43;;
4744;SDS011;2386;42.138;24.746;2023-05-07T10:02:58;13.87;;;4.20;;
4744;SDS011;2386;42.138;24.746;2023-05-07T10:05:26;4.70;;;4.33;;
4744;SDS011;2386;42.138;24.746;2023-05-07T10:07:52;5.30;;;4.30;;
4744;SDS011;2386;42.138;24.746;2023-05-07T10:10:18;10.57;;;4.63;;
4744;SDS011;2386;42.138;24.746;2023-05-07T10:12:44;4.70;;;4.20;;
4744;SDS011;2386;42.138;24.746;2023-05-07T10:15:10;5.00;;;4.00;;
4744;SDS011;2386;42.138;24.746;2023-05-07T10:17:36;4.10;;;3.80;;
4744;SDS011;2386;42.138;24.746;2023-05-07T10:20:04;4.37;;;3.97;;
4744;SDS011;2386;42.138;24.746;2023-05-07T10:22:37;4.67;;;4.10;;
4744;SDS011;2386;42.138;24.746;2023-05-07T10:25:06;13.10;;;4.70;;
4744;SDS011;2386;42.138;24.746;2023-05-07T10:27:39;5.73;;;4.63;;
4744;SDS011;2386;42.138;24.746;2023-05-07T10:30:07;6.10;;;4.10;;
4744;SDS011;2386;42.138;24.746;2023-05-07T10:32:56;5.00;;;4.43;;
4744;SDS011;2386;42.138;24.746;2023-05-07T10:35:31;10.80;;;4.70;;
4744;SDS011;2386;42.138;24.746;2023-05-07T10:38:03;11.47;;;4.90;;
4744;SDS011;2386;42.138;24.746;2023-05-07T10:40:30;7.77;;;4.13;;
4744;SDS011;2386;42.138;24.746;2023-05-07T10:42:57;4.23;;;3.93;;
4744;SDS011;2386;42.138;24.746;2023-05-07T10:45:25;5.03;;;4.40;;
4744;SDS011;2386;42.138;24.746;2023-05-07T10:48:07;5.50;;;3.97;;
4744;SDS011;2386;42.138;24.746;2023-05-07T10:50:33;4.70;;;4.30;;
4744;SDS011;2386;42.138;24.746;2023-05-07T10:55:47;5.07;;;4.00;;
4744;SDS011;2386;42.138;24.746;2023-05-07T10:58:29;4.10;;;3.80;;
4744;SDS011;2386;42.138;24.746;2023-05-07T11:00:58;5.07;;;3.90;;
4744;SDS011;2386;42.138;24.746;2023-05-07T11:03:25;18.60;;;4.90;;
4744;SDS011;2386;42.138;24.746;2023-05-07T11:11:19;6.70;;;4.33;;
4744;SDS011;2386;42.138;24.746;2023-05-07T11:13:47;6.80;;;4.07;;
4744;SDS011;2386;42.138;24.746;2023-05-07T11:21:31;8.33;;;4.30;;
4744;SDS011;2386;42.138;24.746;2023-05-07T11:23:58;4.30;;;3.90;;
4744;SDS011;2386;42.138;24.746;2023-05-07T11:26:24;3.67;;;3.37;;
4744;SDS011;2386;42.138;24.746;2023-05-07T11:28:50;4.50;;;4.10;;
4744;SDS011;2386;42.138;24.746;2023-05-07T11:31:20;3.87;;;3.57;;
4744;SDS011;2386;42.138;24.746;2023-05-07T11:33:48;4.63;;;4.23;;
4744;SDS011;2386;42.138;24.746;2023-05-07T11:36:14;4.20;;;3.80;;
4744;SDS011;2386;42.138;24.746;2023-05-07T11:38:40;5.27;;;4.03;;
4744;SDS011;2386;42.138;24.746;2023-05-07T11:41:05;8.40;;;3.80;;
4744;SDS011;2386;42.138;24.746;2023-05-07T11:43:32;7.50;;;4.07;;
4744;SDS011;2386;42.138;24.746;2023-05-07T11:46:04;4.20;;;3.80;;
4744;SDS011;2386;42.138;24.746;2023-05-07T11:48:33;4.30;;;3.90;;
4744;SDS011;2386;42.138;24.746;2023-05-07T11:51:00;8.40;;;3.70;;
4744;SDS011;2386;42.138;24.746;2023-05-07T11:53:26;4.53;;;4.13;;
4744;SDS011;2386;42.138;24.746;2023-05-07T11:55:55;4.30;;;3.97;;
4744;SDS011;2386;42.138;24.746;2023-05-07T11:58:21;4.83;;;4.27;;
4744;SDS011;2386;42.138;24.746;2023-05-07T12:00:51;4.73;;;4.00;;
4744;SDS011;2386;42.138;24.746;2023-05-07T12:03:18;8.60;;;4.30;;
4744;SDS011;2386;42.138;24.746;2023-05-07T12:05:45;5.03;;;4.43;;
4744;SDS011;2386;42.138;24.746;2023-05-07T12:08:14;9.00;;;3.50;;
4744;SDS011;2386;42.138;24.746;2023-05-07T12:10:44;6.00;;;3.70;;
4744;SDS011;2386;42.138;24.746;2023-05-07T12:13:20;9.90;;;4.13;;
4744;SDS011;2386;42.138;24.746;2023-05-07T12:15:49;3.87;;;3.07;;
4744;SDS011;2386;42.138;24.746;2023-05-07T12:18:16;3.70;;;3.40;;
4744;SDS011;2386;42.138;24.746;2023-05-07T12:20:41;3.30;;;3.00;;
4744;SDS011;2386;42.138;24.746;2023-05-07T12:23:07;7.13;;;3.23;;
4744;SDS011;2386;42.138;24.746;2023-05-07T12:25:36;3.40;;;3.10;;
4744;SDS011;2386;42.138;24.746;2023-05-07T12:28:03;5.87;;;3.13;;
4744;SDS011;2386;42.138;24.746;2023-05-07T12:30:30;6.10;;;3.40;;
4744;SDS011;2386;42.138;24.746;2023-05-07T12:32:57;3.27;;;3.00;;
4744;SDS011;2386;42.138;24.746;2023-05-07T12:35:29;5.47;;;3.10;;
4744;SDS011;2386;42.138;24.746;2023-05-07T12:37:56;9.63;;;3.20;;
4744;SDS011;2386;42.138;24.746;2023-05-07T12:40:24;4.67;;;3.30;;
4744;SDS011;2386;42.138;24.746;2023-05-07T12:43:00;4.90;;;2.73;;
4744;SDS011;2386;42.138;24.746;2023-05-07T12:45:26;2.73;;;2.53;;
4744;SDS011;2386;42.138;24.746;2023-05-07T12:47:51;2.70;;;2.50;;
4744;SDS011;2386;42.138;24.746;2023-05-07T12:50:16;2.40;;;2.30;;
4744;SDS011;2386;42.138;24.746;2023-05-07T12:52:43;2.70;;;2.50;;
4744;SDS011;2386;42.138;24.746;2023-05-07T12:55:09;2.57;;;2.37;;
4744;SDS011;2386;42.138;24.746;2023-05-07T12:57:39;4.60;;;2.35;;
4744;SDS011;2386;42.138;24.746;2023-05-07T13:00:05;2.75;;;2.65;;
4744;SDS011;2386;42.138;24.746;2023-05-07T13:02:32;3.00;;;2.30;;
4744;SDS011;2386;42.138;24.746;2023-05-07T13:04:59;3.03;;;2.60;;
4744;SDS011;2386;42.138;24.746;2023-05-07T13:07:25;2.47;;;2.33;;
4744;SDS011;2386;42.138;24.746;2023-05-07T13:09:50;2.38;;;2.28;;
4744;SDS011;2386;42.138;24.746;2023-05-07T13:12:16;2.55;;;2.10;;
4744;SDS011;2386;42.138;24.746;2023-05-07T13:14:41;2.53;;;2.40;;
4744;SDS011;2386;42.138;24.746;2023-05-07T13:17:06;2.30;;;2.20;;
4744;SDS011;2386;42.138;24.746;2023-05-07T13:19:32;2.33;;;2.20;;
4744;SDS011;2386;42.138;24.746;2023-05-07T13:21:57;4.00;;;2.40;;
4744;SDS011;2386;42.138;24.746;2023-05-07T13:24:22;2.88;;;2.22;;
4744;SDS011;2386;42.138;24.746;2023-05-07T13:26:48;3.08;;;2.42;;
4744;SDS011;2386;42.138;24.746;2023-05-07T13:29:13;2.45;;;1.92;;
4744;SDS011;2386;42.138;24.746;2023-05-07T13:31:38;4.00;;;2.50;;
4744;SDS011;2386;42.138;24.746;2023-05-07T13:34:07;3.17;;;2.00;;
4744;SDS011;2386;42.138;24.746;2023-05-07T13:36:33;3.20;;;2.63;;
4744;SDS011;2386;42.138;24.746;2023-05-07T13:39:02;3.53;;;2.47;;
4744;SDS011;2386;42.138;24.746;2023-05-07T13:41:28;2.30;;;2.15;;
4744;SDS011;2386;42.138;24.746;2023-05-07T13:43:53;5.68;;;2.10;;
4744;SDS011;2386;42.138;24.746;2023-05-07T13:46:19;4.40;;;2.35;;
4744;SDS011;2386;42.138;24.746;2023-05-07T13:48:44;1.98;;;1.88;;
4744;SDS011;2386;42.138;24.746;2023-05-07T13:51:10;2.30;;;2.20;;
4744;SDS011;2386;42.138;24.746;2023-05-07T13:53:36;3.60;;;2.10;;
4744;SDS011;2386;42.138;24.746;2023-05-07T13:56:02;4.72;;;2.10;;
4744;SDS011;2386;42.138;24.746;2023-05-07T13:58:29;4.03;;;1.80;;
4744;SDS011;2386;42.138;24.746;2023-05-07T14:00:55;2.25;;;1.60;;
4744;SDS011;2386;42.138;24.746;2023-05-07T14:03:20;1.90;;;1.80;;
4744;SDS011;2386;42.138;24.746;2023-05-07T14:05:46;2.08;;;1.98;;
4744;SDS011;2386;42.138;24.746;2023-05-07T14:08:11;1.77;;;1.73;;
4744;SDS011;2386;42.138;24.746;2023-05-07T14:10:38;2.10;;;2.00;;
4744;SDS011;2386;42.138;24.746;2023-05-07T14:13:04;3.00;;;1.92;;
4744;SDS011;2386;42.138;24.746;2023-05-07T14:15:30;1.75;;;1.65;;
4744;SDS011;2386;42.138;24.746;2023-05-07T14:17:57;3.13;;;1.77;;
4744;SDS011;2386;42.138;24.746;2023-05-07T14:20:23;1.83;;;1.67;;
4744;SDS011;2386;42.138;24.746;2023-05-07T14:22:49;3.85;;;1.83;;
4744;SDS011;2386;42.138;24.746;2023-05-07T14:25:15;2.35;;;1.60;;
4744;SDS011;2386;42.138;24.746;2023-05-07T14:27:40;1.77;;;1.73;;
4744;SDS011;2386;42.138;24.746;2023-05-07T14:30:06;1.60;;;1.60;;
4744;SDS011;2386;42.138;24.746;2023-05-07T14:32:32;4.53;;;1.77;;
4744;SDS011;2386;42.138;24.746;2023-05-07T14:34:58;2.35;;;1.70;;
4744;SDS011;2386;42.138;24.746;2023-05-07T14:37:24;5.00;;;1.85;;
4744;SDS011;2386;42.138;24.746;2023-05-07T14:39:49;9.10;;;1.60;;
4744;SDS011;2386;42.138;24.746;2023-05-07T14:42:14;1.92;;;1.88;;
4744;SDS011;2386;42.138;24.746;2023-05-07T14:44:40;1.52;;;1.42;;
4744;SDS011;2386;42.138;24.746;2023-05-07T14:47:06;2.67;;;1.92;;
4744;SDS011;2386;42.138;24.746;2023-05-07T14:49:32;1.85;;;1.70;;
4744;SDS011;2386;42.138;24.746;2023-05-07T14:51:58;2.53;;;1.98;;
4744;SDS011;2386;42.138;24.746;2023-05-07T14:54:27;1.80;;;1.80;;
4744;SDS011;2386;42.138;24.746;2023-05-07T14:56:52;3.95;;;2.00;;
4744;SDS011;2386;42.138;24.746;2023-05-07T14:59:18;2.50;;;1.80;;
4744;SDS011;2386;42.138;24.746;2023-05-07T15:01:46;2.10;;;2.00;;